Time;durP1;ratioP1;P1;durP2;ratioP2;P2;SDS_P1;SDS_P2;PMS_P1;PMS_P2;Temp;Humidity;BMP_temperature;BMP_pressure;BME280_temperature;BME280_humidity;BME280_pressure;Samples;Min_cycle;Max_cycle;Signal;HPM_P1;HPM_P2
2023/03/24 00:01:01;;;;;;;;;;;;;;;19.52;40.26;100953.20;101536;1313;62266;-81
2023/03/24 00:03:28;;;;;;;;;;;;;;;19.52;40.31;100951.23;101460;1314;62174;-82
2023/03/24 00:06:00;;;;;;;;;;;;;;;19.52;40.28;100944.27;101627;1311;62558;-80
2023/03/24 00:08:30;;;;;;;;;;;;;;;19.52;40.34;100940.34;101660;1312;73550;-82
2023/03/24 00:11:00;;;;;;;;;;;;;;;19.52;40.25;100936.95;101545;1311;75323;-81
2023/03/24 00:13:27;;;;;;;;;;;;;;;19.52;40.33;100941.97;101587;1311;63307;-82
2023/03/24 00:15:53;;;;;;;;;;;;;;;19.52;40.36;100940.86;101459;1312;62296;-82
2023/03/24 00:18:21;;;;;;;;;;;;;;;19.52;40.21;100939.84;101531;1311;63323;-81
2023/03/24 00:20:47;;;;;;;;;;;;;;;19.51;40.27;100937.89;101552;1310;62193;-81
2023/03/24 00:23:14;;;;;;;;;;;;;;;19.52;40.20;100945.20;101547;1314;62241;-82
2023/03/24 00:25:40;;;;;;;;;;;;;;;19.52;40.25;100942.67;101591;1312;62238;-81
2023/03/24 00:28:06;;;;;;;;;;;;;;;19.52;40.24;100937.51;101508;1312;63252;-84
2023/03/24 00:30:32;;;;;;;;;;;;;;;19.51;40.26;100938.44;101809;1311;62239;-81
2023/03/24 00:33:00;;;;;;;;;;;;;;;19.51;40.29;100941.80;101533;1310;62350;-81
2023/03/24 00:35:26;;;;;;;;;;;;;;;19.51;40.34;100936.64;101593;1312;62261;-81
2023/03/24 00:37:52;;;;;;;;;;;;;;;19.51;40.27;100939.52;101579;1316;62222;-81
2023/03/24 00:40:18;;;;;;;;;;;;;;;19.51;40.20;100936.68;101609;1312;62309;-82
2023/03/24 00:42:44;;;;;;;;;;;;;;;19.51;40.24;100934.89;101610;1312;62280;-82
2023/03/24 00:45:10;;;;;;;;;;;;;;;19.51;40.23;100937.20;101666;1314;62174;-81
2023/03/24 00:47:36;;;;;;;;;;;;;;;19.50;40.25;100934.92;101551;1312;62235;-81
2023/03/24 00:50:04;;;;;;;;;;;;;;;19.50;40.26;100934.91;101502;1311;62366;-81
2023/03/24 00:52:33;;;;;;;;;;;;;;;19.50;40.31;100932.09;101581;1311;62155;-81
2023/03/24 00:55:03;;;;;;;;;;;;;;;19.50;40.19;100929.06;101546;1309;62144;-81
2023/03/24 00:57:33;;;;;;;;;;;;;;;19.50;40.25;100927.10;101552;1312;72477;-82
2023/03/24 01:00:06;;;;;;;;;;;;;;;19.49;40.28;100928.55;101619;1311;75371;-81
2023/03/24 01:02:38;;;;;;;;;;;;;;;19.50;40.19;100931.92;101590;1311;62233;-81
2023/03/24 01:05:05;;;;;;;;;;;;;;;19.49;40.28;100929.98;101567;1312;62210;-81
2023/03/24 01:07:30;;;;;;;;;;;;;;;19.50;40.26;100931.94;101485;1311;62278;-81
2023/03/24 01:09:57;;;;;;;;;;;;;;;19.49;40.23;100932.66;101525;1310;63317;-82
2023/03/24 01:12:26;;;;;;;;;;;;;;;19.50;40.24;100931.58;101540;1312;63075;-80
2023/03/24 01:14:51;;;;;;;;;;;;;;;19.48;40.18;100932.90;101529;1314;62172;-81
2023/03/24 01:17:18;;;;;;;;;;;;;;;19.49;40.30;100937.70;101518;1312;62290;-80
2023/03/24 01:19:43;;;;;;;;;;;;;;;19.49;40.20;100941.61;101526;1314;62236;-81
2023/03/24 01:22:09;;;;;;;;;;;;;;;19.48;40.18;100943.80;101562;1314;62258;-81
2023/03/24 01:24:36;;;;;;;;;;;;;;;19.48;40.27;100950.58;101491;1311;62318;-81
2023/03/24 01:27:01;;;;;;;;;;;;;;;19.48;40.16;100962.56;101522;1314;62345;-81
2023/03/24 01:29:27;;;;;;;;;;;;;;;19.48;40.18;100968.63;101626;1314;62192;-81
2023/03/24 01:31:53;;;;;;;;;;;;;;;19.48;40.27;100961.89;101570;1314;63461;-82
2023/03/24 01:34:18;;;;;;;;;;;;;;;19.48;40.16;100944.94;101470;1311;62129;-81
2023/03/24 01:36:44;;;;;;;;;;;;;;;19.47;40.27;100935.66;101530;1312;63421;-81
2023/03/24 01:39:10;;;;;;;;;;;;;;;19.47;40.25;100937.98;101617;1314;62300;-80
2023/03/24 01:41:37;;;;;;;;;;;;;;;19.47;40.16;100924.06;101683;1314;62385;-81
2023/03/24 01:44:21;;;;;;;;;;;;;;;19.46;40.20;100907.30;101656;1312;62147;-81
2023/03/24 01:46:47;;;;;;;;;;;;;;;19.46;40.17;100902.86;101579;1311;61995;-82
2023/03/24 01:49:12;;;;;;;;;;;;;;;19.46;40.22;100904.45;101634;1310;62236;-81
2023/03/24 01:51:43;;;;;;;;;;;;;;;19.46;40.15;100903.95;101632;1311;62273;-81
2023/03/24 01:54:21;;;;;;;;;;;;;;;19.45;40.18;100903.81;101591;1312;63751;-81
2023/03/24 01:56:51;;;;;;;;;;;;;;;19.46;40.22;100896.45;101605;1311;62210;-82
2023/03/24 01:59:18;;;;;;;;;;;;;;;19.46;40.15;100890.91;101582;1314;71854;-81
2023/03/24 02:01:44;;;;;;;;;;;;;;;19.46;40.22;100886.86;101545;1309;62625;-82
2023/03/24 02:04:10;;;;;;;;;;;;;;;19.45;40.20;100887.74;101403;1311;62188;-81
2023/03/24 02:06:39;;;;;;;;;;;;;;;19.45;40.23;100885.99;101587;1314;62187;-80
2023/03/24 02:09:05;;;;;;;;;;;;;;;19.45;40.20;100885.63;101594;1314;73574;-81
2023/03/24 02:11:32;;;;;;;;;;;;;;;19.45;40.18;100882.42;101524;1310;62716;-81
2023/03/24 02:13:57;;;;;;;;;;;;;;;19.44;40.15;100886.39;101624;1314;62342;-81
2023/03/24 02:16:26;;;;;;;;;;;;;;;19.45;40.27;100889.05;101516;1314;62302;-81
2023/03/24 02:19:11;;;;;;;;;;;;;;;19.44;40.11;100889.25;101626;1311;72597;-81
2023/03/24 02:21:40;;;;;;;;;;;;;;;19.44;40.15;100893.54;101635;1312;74232;-81
2023/03/24 02:24:06;;;;;;;;;;;;;;;19.44;40.17;100897.48;101701;1312;62264;-81
2023/03/24 02:26:58;;;;;;;;;;;;;;;19.45;40.10;100904.23;101620;1311;62901;-81
2023/03/24 02:29:44;;;;;;;;;;;;;;;19.44;40.17;100908.54;100928;1314;73404;-82
2023/03/24 02:32:29;;;;;;;;;;;;;;;19.44;40.19;100908.55;101090;1315;76589;-81
2023/03/24 02:35:10;;;;;;;;;;;;;;;19.43;40.08;100903.92;101048;1318;62258;-81
2023/03/24 02:37:38;;;;;;;;;;;;;;;19.43;40.18;100906.06;101081;1314;62302;-81
2023/03/24 02:40:16;;;;;;;;;;;;;;;19.43;40.14;100906.80;101080;1314;72608;-81
2023/03/24 02:42:44;;;;;;;;;;;;;;;19.43;40.15;100905.01;101064;1320;76246;-81
2023/03/24 02:45:27;;;;;;;;;;;;;;;19.43;40.13;100905.57;101051;1316;62706;-81
2023/03/24 02:47:56;;;;;;;;;;;;;;;19.43;40.16;100903.77;101044;1314;62507;-81
2023/03/24 02:50:24;;;;;;;;;;;;;;;19.43;40.14;100900.58;101106;1316;72590;-80
2023/03/24 02:52:59;;;;;;;;;;;;;;;19.43;40.10;100896.30;101039;1315;75234;-82
2023/03/24 02:55:45;;;;;;;;;;;;;;;19.43;40.13;100891.12;101065;1317;62236;-81
2023/03/24 02:58:15;;;;;;;;;;;;;;;19.43;40.22;100894.86;100925;1313;62201;-82
2023/03/24 03:00:45;;;;;;;;;;;;;;;19.43;40.20;100894.70;100890;1319;73536;-81
2023/03/24 03:03:11;;;;;;;;;;;;;;;19.42;40.11;100895.60;101039;1314;76031;-82
2023/03/24 03:05:40;;;;;;;;;;;;;;;19.42;40.09;100896.52;101026;1314;62238;-82
2023/03/24 03:08:06;;;;;;;;;;;;;;;19.42;40.16;100895.61;101616;1312;62274;-82
2023/03/24 03:10:34;;;;;;;;;;;;;;;19.42;40.13;100894.90;101476;1311;62232;-81
2023/03/24 03:13:00;;;;;;;;;;;;;;;19.42;40.14;100892.25;101624;1311;75354;-82
2023/03/24 03:15:37;;;;;;;;;;;;;;;19.42;40.07;100897.60;101451;1312;62175;-82
2023/03/24 03:18:21;;;;;;;;;;;;;;;19.41;40.18;100900.29;101491;1317;62271;-81
2023/03/24 03:20:51;;;;;;;;;;;;;;;19.41;40.10;100899.61;101702;1311;73628;-82
2023/03/24 03:23:43;;;;;;;;;;;;;;;19.41;40.12;100898.01;101539;1312;75232;-82
2023/03/24 03:26:11;;;;;;;;;;;;;;;19.41;40.12;100897.30;101637;1312;62676;-81
2023/03/24 03:28:38;;;;;;;;;;;;;;;19.41;40.07;100893.38;101557;1311;62130;-82
2023/03/24 03:31:06;;;;;;;;;;;;;;;19.41;40.13;100896.05;101644;1312;62177;-82
2023/03/24 03:33:39;;;;;;;;;;;;;;;19.41;40.15;100892.83;101582;1312;76284;-81
2023/03/24 03:36:15;;;;;;;;;;;;;;;19.41;40.14;100892.33;101611;1311;62118;-81
2023/03/24 03:38:48;;;;;;;;;;;;;;;19.41;40.09;100891.09;101684;1311;62245;-82
2023/03/24 03:41:15;;;;;;;;;;;;;;;19.41;40.04;100891.96;101748;1311;72501;-81
2023/03/24 03:43:41;;;;;;;;;;;;;;;19.40;40.14;100891.48;101657;1310;76633;-81
2023/03/24 03:46:07;;;;;;;;;;;;;;;19.40;40.07;100887.89;101671;1312;62242;-82
2023/03/24 03:48:33;;;;;;;;;;;;;;;19.40;40.11;100891.67;101663;1311;62245;-81
2023/03/24 03:50:58;;;;;;;;;;;;;;;19.39;39.93;100891.33;101579;1312;62325;-81
2023/03/24 03:53:50;;;;;;;;;;;;;;;19.39;40.05;100894.01;101604;1311;62127;-81
2023/03/24 03:56:17;;;;;;;;;;;;;;;19.39;40.08;100895.08;101447;1311;76641;-81
2023/03/24 03:58:45;;;;;;;;;;;;;;;19.39;40.09;100897.21;101561;1315;62241;-81
2023/03/24 04:01:12;;;;;;;;;;;;;;;19.39;40.05;100896.89;101603;1312;62223;-82
2023/03/24 04:03:49;;;;;;;;;;;;;;;19.39;40.03;100897.42;101527;1314;72394;-81
2023/03/24 04:06:18;;;;;;;;;;;;;;;19.39;40.05;100903.14;101485;1310;75388;-81
2023/03/24 04:08:50;;;;;;;;;;;;;;;19.39;39.99;100903.34;101651;1311;63023;-81
2023/03/24 04:11:22;;;;;;;;;;;;;;;19.38;40.04;100902.99;101641;1313;62051;-82
2023/03/24 04:13:57;;;;;;;;;;;;;;;19.38;40.03;100907.98;101618;1311;72479;-81
2023/03/24 04:16:26;;;;;;;;;;;;;;;19.38;40.00;100907.82;101548;1311;75469;-82
2023/03/24 04:18:54;;;;;;;;;;;;;;;19.38;39.96;100909.44;101681;1311;62232;-81
2023/03/24 04:21:32;;;;;;;;;;;;;;;19.38;40.01;100909.42;101695;1314;62153;-82
2023/03/24 04:24:02;;;;;;;;;;;;;;;19.38;40.06;100908.89;101618;1311;71714;-82
2023/03/24 04:26:53;;;;;;;;;;;;;;;19.38;40.04;100911.95;101685;1312;75321;-82
2023/03/24 04:29:24;;;;;;;;;;;;;;;19.38;39.88;100921.75;101023;1315;62206;-81
2023/03/24 04:31:57;;;;;;;;;;;;;;;19.38;40.02;100927.30;101020;1315;62229;-81
2023/03/24 04:34:49;;;;;;;;;;;;;;;19.38;40.03;100933.01;100981;1317;73736;-81
2023/03/24 04:37:17;;;;;;;;;;;;;;;19.38;39.99;100935.33;101050;1321;76347;-81
2023/03/24 04:39:43;;;;;;;;;;;;;;;19.38;39.96;100939.95;101000;1317;62142;-82
2023/03/24 04:42:11;;;;;;;;;;;;;;;19.38;40.01;100947.98;101015;1314;62243;-81
2023/03/24 04:44:40;;;;;;;;;;;;;;;19.38;39.96;100946.73;100908;1317;72580;-80
2023/03/24 04:47:06;;;;;;;;;;;;;;;19.39;39.94;100947.77;100947;1318;75696;-81
2023/03/24 04:49:35;;;;;;;;;;;;;;;19.38;39.92;100948.69;100941;1320;62328;-80
2023/03/24 04:52:01;;;;;;;;;;;;;;;19.39;40.00;100953.30;100992;1314;62734;-82
2023/03/24 04:54:27;;;;;;;;;;;;;;;19.38;40.04;100957.08;100999;1316;62267;-80
2023/03/24 04:56:52;;;;;;;;;;;;;;;19.38;39.99;100955.46;100903;1317;62457;-81
2023/03/24 04:59:18;;;;;;;;;;;;;;;19.38;39.93;100952.11;101003;1320;62240;-81
2023/03/24 05:01:50;;;;;;;;;;;;;;;19.36;39.87;100955.05;100909;1323;62255;-81
2023/03/24 05:04:16;;;;;;;;;;;;;;;19.35;39.91;100955.14;100876;1317;62241;-81
2023/03/24 05:06:42;;;;;;;;;;;;;;;19.32;39.86;100952.83;101148;1316;62309;-81
2023/03/24 05:09:07;;;;;;;;;;;;;;;19.30;39.86;100952.73;101576;1311;62680;-82
2023/03/24 05:11:33;;;;;;;;;;;;;;;19.29;39.84;100952.12;101725;1311;62350;-82
2023/03/24 05:13:58;;;;;;;;;;;;;;;19.25;39.75;100949.87;101537;1312;62203;-82
2023/03/24 05:16:24;;;;;;;;;;;;;;;19.19;39.74;100946.98;101632;1314;62312;-83
2023/03/24 05:18:50;;;;;;;;;;;;;;;19.16;39.86;100946.66;101682;1311;72523;-82
2023/03/24 05:21:15;;;;;;;;;;;;;;;19.12;39.74;100946.54;101556;1314;62302;-82
2023/03/24 05:23:41;;;;;;;;;;;;;;;19.09;39.73;100944.94;101543;1311;62320;-82
2023/03/24 05:26:07;;;;;;;;;;;;;;;19.07;39.70;100944.18;101543;1312;62236;-82
2023/03/24 05:28:32;;;;;;;;;;;;;;;19.05;39.72;100950.70;101648;1311;62264;-81
2023/03/24 05:30:59;;;;;;;;;;;;;;;19.03;39.71;100950.24;101513;1310;72630;-83
2023/03/24 05:33:26;;;;;;;;;;;;;;;19.01;39.74;100951.45;101591;1310;76344;-82
2023/03/24 05:35:51;;;;;;;;;;;;;;;19.00;39.75;100955.47;101734;1311;62325;-82
2023/03/24 05:38:17;;;;;;;;;;;;;;;18.99;39.75;100963.34;101795;1314;62327;-82
2023/03/24 05:40:42;;;;;;;;;;;;;;;18.98;39.74;100966.46;101979;1311;62220;-82
2023/03/24 05:43:08;;;;;;;;;;;;;;;18.97;39.74;100969.73;102363;1308;62145;-81
2023/03/24 05:45:34;;;;;;;;;;;;;;;18.96;39.73;100972.50;102421;1311;62236;-81
2023/03/24 05:47:59;;;;;;;;;;;;;;;18.95;39.73;100974.16;102430;1309;62248;-80
2023/03/24 05:50:26;;;;;;;;;;;;;;;18.93;39.72;100971.40;102787;1308;62167;-80
2023/03/24 05:52:51;;;;;;;;;;;;;;;18.90;39.83;100974.57;102832;1311;61989;-81
2023/03/24 05:55:18;;;;;;;;;;;;;;;18.88;39.74;100980.25;103000;1308;62223;-81
2023/03/24 05:57:44;;;;;;;;;;;;;;;18.84;39.81;100981.14;103001;1310;62281;-81
2023/03/24 06:00:16;;;;;;;;;;;;;;;18.81;39.78;100981.36;102967;1308;62181;-81
2023/03/24 06:02:45;;;;;;;;;;;;;;;18.80;39.91;100979.63;103028;1311;72649;-81
2023/03/24 06:05:11;;;;;;;;;;;;;;;18.82;39.91;100976.67;102836;1310;76253;-81
2023/03/24 06:07:37;;;;;;;;;;;;;;;18.83;39.83;100974.41;102738;1311;62909;-81
2023/03/24 06:10:03;;;;;;;;;;;;;;;18.84;39.80;100972.96;102829;1309;60375;-82
2023/03/24 06:12:29;;;;;;;;;;;;;;;18.85;39.86;100970.23;102632;1311;62198;-81
2023/03/24 06:14:55;;;;;;;;;;;;;;;18.85;39.84;100964.88;102710;1311;62172;-81
2023/03/24 06:17:23;;;;;;;;;;;;;;;18.85;39.77;100965.63;102871;1314;62229;-81
2023/03/24 06:19:49;;;;;;;;;;;;;;;18.85;39.78;100965.98;102899;1310;62114;-81
2023/03/24 06:22:17;;;;;;;;;;;;;;;18.85;39.78;100968.25;102623;1316;62216;-81
2023/03/24 06:24:43;;;;;;;;;;;;;;;18.86;39.85;100964.46;102958;1311;60190;-81
2023/03/24 06:27:09;;;;;;;;;;;;;;;18.87;39.89;100966.75;102708;1310;62322;-81
2023/03/24 06:29:36;;;;;;;;;;;;;;;18.86;39.83;100967.83;102673;1309;62245;-81
2023/03/24 06:32:02;;;;;;;;;;;;;;;18.87;39.85;100968.69;102822;1314;62015;-81
2023/03/24 06:34:28;;;;;;;;;;;;;;;18.88;39.73;100970.06;102812;1312;62222;-81
2023/03/24 06:36:54;;;;;;;;;;;;;;;18.87;39.85;100973.84;102804;1311;62224;-81
2023/03/24 06:39:20;;;;;;;;;;;;;;;18.85;39.70;100971.81;102822;1308;62244;-81
2023/03/24 06:41:46;;;;;;;;;;;;;;;18.85;39.81;100972.92;102797;1311;62226;-81
2023/03/24 06:44:11;;;;;;;;;;;;;;;18.86;39.72;100972.85;102750;1308;60098;-81
2023/03/24 06:46:36;;;;;;;;;;;;;;;18.87;39.74;100969.04;102530;1311;76678;-81
2023/03/24 06:49:02;;;;;;;;;;;;;;;18.90;39.86;100970.52;102698;1311;62145;-80
2023/03/24 06:51:28;;;;;;;;;;;;;;;18.92;39.80;100969.85;102869;1311;62309;-80
2023/03/24 06:53:53;;;;;;;;;;;;;;;18.94;39.79;100970.63;103241;1311;60674;-80
2023/03/24 06:56:20;;;;;;;;;;;;;;;18.96;39.71;100973.04;102902;1311;62207;-81
2023/03/24 06:58:45;;;;;;;;;;;;;;;18.97;39.78;100972.06;102951;1309;77054;-81
2023/03/24 07:01:11;;;;;;;;;;;;;;;18.99;39.82;100969.47;102780;1312;62159;-81
2023/03/24 07:03:37;;;;;;;;;;;;;;;19.00;39.89;100966.91;101880;1309;1463500;-80
2023/03/24 07:06:03;;;;;;;;;;;;;;;19.01;39.94;100968.79;103196;1308;61003;-82
2023/03/24 07:08:29;;;;;;;;;;;;;;;19.03;39.93;100963.98;102975;1312;62241;-81
2023/03/24 07:10:55;;;;;;;;;;;;;;;19.05;39.88;100967.10;102925;1311;62200;-82
2023/03/24 07:13:20;;;;;;;;;;;;;;;19.08;39.84;100964.10;102975;1311;62327;-82
2023/03/24 07:15:47;;;;;;;;;;;;;;;19.09;39.84;100966.33;102743;1308;60672;-83
2023/03/24 07:18:12;;;;;;;;;;;;;;;19.11;39.84;100963.36;102952;1310;62232;-82
2023/03/24 07:20:38;;;;;;;;;;;;;;;19.13;39.82;100965.77;102977;1308;64462;-81
2023/03/24 07:23:04;;;;;;;;;;;;;;;19.14;39.74;100971.94;102940;1308;62155;-82
2023/03/24 07:25:29;;;;;;;;;;;;;;;19.15;39.80;100972.77;103176;1308;62081;-80
2023/03/24 07:27:55;;;;;;;;;;;;;;;19.16;39.81;100970.91;102974;1308;62188;-80
2023/03/24 07:30:21;;;;;;;;;;;;;;;19.17;39.74;100971.02;102938;1308;62232;-80
2023/03/24 07:32:48;;;;;;;;;;;;;;;19.18;39.78;100970.95;102994;1308;62226;-80
2023/03/24 07:35:13;;;;;;;;;;;;;;;19.18;39.79;100971.17;102944;1308;62177;-80
2023/03/24 07:37:39;;;;;;;;;;;;;;;19.18;39.85;100972.42;102966;1313;62284;-80
2023/03/24 07:40:09;;;;;;;;;;;;;;;19.18;39.82;100969.20;102911;1308;63407;-80
2023/03/24 07:42:35;;;;;;;;;;;;;;;19.19;39.80;100967.38;103048;1308;75454;-81
2023/03/24 07:45:01;;;;;;;;;;;;;;;19.19;39.84;100965.56;103010;1308;60652;-81
2023/03/24 07:47:27;;;;;;;;;;;;;;;19.21;39.82;100965.66;103082;1308;62234;-81
2023/03/24 07:49:53;;;;;;;;;;;;;;;19.21;39.81;100963.32;103163;1308;61988;-81
2023/03/24 07:52:19;;;;;;;;;;;;;;;19.21;39.73;100964.36;103170;1308;61584;-81
2023/03/24 07:54:44;;;;;;;;;;;;;;;19.20;39.90;100965.52;103260;1308;61426;-81
2023/03/24 07:57:10;;;;;;;;;;;;;;;19.16;39.85;100964.13;103529;1309;62212;-83
2023/03/24 07:59:36;;;;;;;;;;;;;;;19.13;39.97;100956.83;103444;1308;62124;-81
2023/03/24 08:02:02;;;;;;;;;;;;;;;19.12;39.95;100963.16;104196;1308;60642;-82
2023/03/24 08:04:28;;;;;;;;;;;;;;;19.11;40.07;100964.45;104343;1308;60373;-81
2023/03/24 08:06:53;;;;;;;;;;;;;;;19.12;40.13;100961.02;104255;1308;60279;-82
2023/03/24 08:09:20;;;;;;;;;;;;;;;19.13;40.32;100960.42;104348;1308;60059;-82
2023/03/24 08:11:47;;;;;;;;;;;;;;;19.14;40.35;100960.54;104109;1308;61528;-82
2023/03/24 08:14:12;;;;;;;;;;;;;;;19.16;40.37;100961.14;104073;1308;60702;-82
2023/03/24 08:16:38;;;;;;;;;;;;;;;19.16;40.38;100962.70;104202;1308;60577;-82
2023/03/24 08:19:03;;;;;;;;;;;;;;;19.19;40.44;100959.13;104307;1308;60819;-82
2023/03/24 08:21:29;;;;;;;;;;;;;;;19.23;40.58;100957.48;104453;1308;60272;-82
2023/03/24 08:23:54;;;;;;;;;;;;;;;19.26;40.64;100957.98;104268;1308;61429;-82
2023/03/24 08:26:21;;;;;;;;;;;;;;;19.29;40.56;100958.34;104326;1314;60141;-82
2023/03/24 08:28:48;;;;;;;;;;;;;;;19.31;40.50;100951.97;104533;1308;60122;-82
2023/03/24 08:31:13;;;;;;;;;;;;;;;19.33;40.56;100951.33;102922;1308;62168;-80
2023/03/24 08:33:39;;;;;;;;;;;;;;;19.34;40.47;100950.19;102744;1311;62079;-81
2023/03/24 08:36:05;;;;;;;;;;;;;;;19.35;40.39;100947.45;103063;1308;62213;-82
2023/03/24 08:38:32;;;;;;;;;;;;;;;19.35;40.45;100945.33;102920;1311;76438;-81
2023/03/24 08:41:00;;;;;;;;;;;;;;;19.35;40.33;100946.59;102760;1308;62724;-81
2023/03/24 08:43:27;;;;;;;;;;;;;;;19.35;40.32;100947.48;103481;1308;62210;-81
2023/03/24 08:45:52;;;;;;;;;;;;;;;19.34;40.33;100947.34;102752;1314;62271;-81
2023/03/24 08:48:18;;;;;;;;;;;;;;;19.33;40.19;100944.90;102720;1308;62223;-82
2023/03/24 08:50:43;;;;;;;;;;;;;;;19.33;40.20;100942.39;102872;1308;60198;-82
2023/03/24 08:53:11;;;;;;;;;;;;;;;19.34;40.25;100941.66;102925;1308;63903;-81
2023/03/24 08:55:40;;;;;;;;;;;;;;;19.33;40.24;100938.29;102850;1308;62072;-81
2023/03/24 08:58:07;;;;;;;;;;;;;;;19.33;40.22;100940.81;102827;1308;76634;-81
2023/03/24 09:00:33;;;;;;;;;;;;;;;19.34;40.24;100942.20;103077;1312;60706;-81
2023/03/24 09:02:59;;;;;;;;;;;;;;;19.33;40.16;100944.02;103168;1308;62175;-82
2023/03/24 09:05:25;;;;;;;;;;;;;;;19.30;40.24;100939.75;103009;1308;62753;-82
2023/03/24 09:07:54;;;;;;;;;;;;;;;19.26;40.30;100933.02;103176;1308;62302;-82
2023/03/24 09:10:24;;;;;;;;;;;;;;;19.24;40.33;100936.85;103875;1313;61999;-83
2023/03/24 09:12:49;;;;;;;;;;;;;;;19.24;40.43;100935.98;103354;1311;60326;-82
2023/03/24 09:15:15;;;;;;;;;;;;;;;19.23;40.52;100933.77;103403;1314;62167;-82
2023/03/24 09:17:41;;;;;;;;;;;;;;;19.24;40.51;100933.13;102994;1308;62214;-82
2023/03/24 09:20:10;;;;;;;;;;;;;;;19.27;40.70;100932.24;103075;1308;62090;-82
2023/03/24 09:22:37;;;;;;;;;;;;;;;19.29;40.67;100928.21;104433;1308;63480;-82
2023/03/24 09:25:03;;;;;;;;;;;;;;;19.30;40.68;100928.13;103496;1308;62136;-83
2023/03/24 09:27:29;;;;;;;;;;;;;;;19.31;40.69;100931.50;103064;1309;62314;-82
2023/03/24 09:29:55;;;;;;;;;;;;;;;19.30;40.69;100930.80;102975;1308;62360;-82
2023/03/24 09:32:21;;;;;;;;;;;;;;;19.31;40.65;100933.27;103130;1308;62107;-82
2023/03/24 09:34:46;;;;;;;;;;;;;;;19.32;40.62;100934.63;103052;1309;62213;-83
2023/03/24 09:37:12;;;;;;;;;;;;;;;19.33;40.59;100928.69;103055;1308;60626;-82
2023/03/24 09:39:37;;;;;;;;;;;;;;;19.34;40.70;100930.93;102796;1314;75411;-82
2023/03/24 09:42:07;;;;;;;;;;;;;;;19.35;40.60;100929.80;102895;1308;62191;-82
2023/03/24 09:44:35;;;;;;;;;;;;;;;19.36;40.59;100925.44;102945;1308;62627;-82
2023/03/24 09:47:10;;;;;;;;;;;;;;;19.37;40.42;100926.64;103704;1308;72210;-82
2023/03/24 09:49:36;;;;;;;;;;;;;;;19.37;40.41;100922.15;103061;1308;75191;-82
2023/03/24 09:52:05;;;;;;;;;;;;;;;19.38;40.47;100914.79;102999;1314;62054;-81
2023/03/24 09:54:43;;;;;;;;;;;;;;;19.39;40.60;100914.88;103279;1308;62050;-82
2023/03/24 09:57:19;;;;;;;;;;;;;;;19.39;40.58;100912.21;103185;1312;73048;-82
2023/03/24 09:59:46;;;;;;;;;;;;;;;19.41;40.47;100908.56;103108;1308;75008;-82
2023/03/24 10:02:12;;;;;;;;;;;;;;;19.41;40.47;100913.34;103298;1309;62130;-82
2023/03/24 10:04:38;;;;;;;;;;;;;;;19.43;40.60;100906.45;103513;1311;60329;-83
2023/03/24 10:07:22;;;;;;;;;;;;;;;19.45;40.78;100907.89;103397;1314;62188;-82
2023/03/24 10:09:49;;;;;;;;;;;;;;;19.50;40.87;100909.97;104146;1314;75956;-82
2023/03/24 10:12:30;;;;;;;;;;;;;;;19.52;40.97;100906.06;104250;1311;62066;-83
2023/03/24 10:15:10;;;;;;;;;;;;;;;19.54;41.06;100901.52;103281;1308;62139;-82
2023/03/24 10:17:42;;;;;;;;;;;;;;;19.55;41.08;100900.37;103353;1311;73493;-81
2023/03/24 10:20:10;;;;;;;;;;;;;;;19.57;41.13;100895.37;103304;1309;76198;-81
2023/03/24 10:22:43;;;;;;;;;;;;;;;19.59;41.05;100895.23;103310;1313;65874;-82
2023/03/24 10:25:11;;;;;;;;;;;;;;;19.61;41.00;100891.97;102966;1314;62677;-82
2023/03/24 10:27:56;;;;;;;;;;;;;;;19.62;40.98;100888.34;103131;1308;72216;-82
2023/03/24 10:30:22;;;;;;;;;;;;;;;19.62;40.92;100888.52;103424;1308;76230;-82
2023/03/24 10:32:47;;;;;;;;;;;;;;;19.64;41.33;100887.48;103126;1308;62238;-82
2023/03/24 10:35:21;;;;;;;;;;;;;;;19.68;41.51;100886.70;103259;1314;62129;-82
2023/03/24 10:37:47;;;;;;;;;;;;;;;19.70;41.61;100879.96;103228;1308;74644;-82
2023/03/24 10:40:17;;;;;;;;;;;;;;;19.70;41.67;100881.52;103003;1308;62111;-81
2023/03/24 10:42:44;;;;;;;;;;;;;;;19.71;41.83;100875.92;102974;1314;62232;-81
2023/03/24 10:45:11;;;;;;;;;;;;;;;19.73;41.91;100875.25;102876;1308;61815;-81
2023/03/24 10:47:36;;;;;;;;;;;;;;;19.75;41.98;100876.61;102990;1314;71377;-81
2023/03/24 10:50:04;;;;;;;;;;;;;;;19.75;41.88;100872.80;102818;1308;60436;-81
2023/03/24 10:52:39;;;;;;;;;;;;;;;19.78;42.07;100870.67;102783;1308;63132;-81
2023/03/24 10:55:05;;;;;;;;;;;;;;;19.78;41.93;100861.91;102822;1308;62217;-82
2023/03/24 10:57:32;;;;;;;;;;;;;;;19.76;41.80;100858.48;103068;1308;62225;-81
2023/03/24 10:59:58;;;;;;;;;;;;;;;19.70;41.54;100851.17;102918;1314;62156;-81
2023/03/24 11:02:26;;;;;;;;;;;;;;;19.65;41.28;100851.18;103302;1309;60275;-82
2023/03/24 11:04:53;;;;;;;;;;;;;;;19.61;41.35;100852.48;103545;1313;60527;-81
2023/03/24 11:07:23;;;;;;;;;;;;;;;19.59;41.44;100851.49;103635;1311;73461;-81
2023/03/24 11:09:58;;;;;;;;;;;;;;;19.58;41.16;100847.48;103991;1314;76387;-81
2023/03/24 11:12:25;;;;;;;;;;;;;;;19.54;41.06;100841.52;103722;1309;62121;-81
2023/03/24 11:14:56;;;;;;;;;;;;;;;19.53;41.06;100838.67;103731;1308;61968;-81
2023/03/24 11:17:21;;;;;;;;;;;;;;;19.54;40.99;100829.18;103418;1308;73043;-81
2023/03/24 11:19:51;;;;;;;;;;;;;;;19.54;41.03;100824.02;103248;1308;62343;-81
2023/03/24 11:22:16;;;;;;;;;;;;;;;19.54;41.06;100817.78;103195;1308;60571;-83
2023/03/24 11:24:42;;;;;;;;;;;;;;;19.53;41.09;100816.40;103287;1308;61212;-83
2023/03/24 11:27:13;;;;;;;;;;;;;;;19.53;41.00;100810.52;103155;1314;60736;-84
2023/03/24 11:29:47;;;;;;;;;;;;;;;19.52;41.02;100806.27;103256;1309;75248;-82
2023/03/24 11:32:18;;;;;;;;;;;;;;;19.54;41.10;100806.86;103936;1308;61861;-81
2023/03/24 11:34:45;;;;;;;;;;;;;;;19.55;40.99;100806.11;103146;1308;62181;-81
2023/03/24 11:37:11;;;;;;;;;;;;;;;19.54;40.82;100804.73;103380;1309;61231;-81
2023/03/24 11:39:37;;;;;;;;;;;;;;;19.54;40.88;100801.55;104294;1309;60786;-82
2023/03/24 11:42:11;;;;;;;;;;;;;;;19.52;40.67;100800.39;104267;1314;60358;-82
2023/03/24 11:44:37;;;;;;;;;;;;;;;19.52;40.64;100795.96;104348;1308;60173;-81
2023/03/24 11:47:17;;;;;;;;;;;;;;;19.51;40.66;100792.09;104470;1314;60479;-82
2023/03/24 11:49:45;;;;;;;;;;;;;;;19.49;40.42;100788.61;104411;1308;74956;-81
2023/03/24 11:52:14;;;;;;;;;;;;;;;19.48;40.47;100785.34;104176;1308;60780;-82
2023/03/24 11:54:39;;;;;;;;;;;;;;;19.48;40.39;100785.66;104242;1314;60341;-82
2023/03/24 11:57:11;;;;;;;;;;;;;;;19.48;40.47;100781.94;104253;1311;60559;-82
2023/03/24 11:59:50;;;;;;;;;;;;;;;19.49;40.42;100784.21;104291;1308;76452;-82
2023/03/24 12:02:19;;;;;;;;;;;;;;;19.50;40.37;100780.86;104374;1308;60194;-82
2023/03/24 12:04:48;;;;;;;;;;;;;;;19.51;40.40;100776.51;104365;1308;60404;-82
2023/03/24 12:07:34;;;;;;;;;;;;;;;19.52;40.33;100769.85;104332;1311;72547;-82
2023/03/24 12:10:06;;;;;;;;;;;;;;;19.54;40.43;100771.34;104319;1308;74841;-82
2023/03/24 12:12:45;;;;;;;;;;;;;;;19.56;40.35;100775.14;104452;1308;59992;-82
2023/03/24 12:15:11;;;;;;;;;;;;;;;19.56;40.30;100772.83;104295;1311;61270;-82
2023/03/24 12:17:40;;;;;;;;;;;;;;;19.56;40.30;100764.94;104537;1309;60986;-82
2023/03/24 12:20:06;;;;;;;;;;;;;;;19.57;40.30;100756.70;104572;1308;75512;-82
2023/03/24 12:22:35;;;;;;;;;;;;;;;19.57;40.22;100750.42;104520;1309;59862;-82
2023/03/24 12:25:18;;;;;;;;;;;;;;;19.58;40.27;100748.23;104504;1308;60259;-81
2023/03/24 12:27:54;;;;;;;;;;;;;;;19.57;40.19;100750.23;103464;1311;73541;-82
2023/03/24 12:30:29;;;;;;;;;;;;;;;19.58;40.18;100749.48;103032;1313;75315;-82
2023/03/24 12:33:07;;;;;;;;;;;;;;;19.60;40.12;100743.10;103138;1309;62003;-82